Time;durP1;ratioP1;P1;durP2;ratioP2;P2;SDS_P1;SDS_P2;PMS_P1;PMS_P2;Temp;Humidity;BMP_temperature;BMP_pressure;BME280_temperature;BME280_humidity;BME280_pressure;Samples;Min_cycle;Max_cycle;Signal;HPM_P1;HPM_P2
2022/06/25 00:00:00;;;;;;;26.95;24.75;;;17.80;99.90;;;;;;5084511;28;20638;-66
2022/06/25 00:02:26;;;;;;;25.83;23.50;;;17.80;99.90;;;;;;5081753;28;20127;-66
2022/06/25 00:07:36;;;;;;;25.85;23.38;;;17.80;99.90;;;;;;5080176;28;20048;-66
2022/06/25 00:10:01;;;;;;;26.08;23.20;;;17.80;99.90;;;;;;5066007;28;20050;-66
2022/06/25 00:12:32;;;;;;;24.27;22.05;;;17.80;99.90;;;;;;5067632;28;20055;-66
2022/06/25 00:15:00;;;;;;;24.90;22.40;;;17.80;99.90;;;;;;5083099;28;20047;-66
2022/06/25 00:17:26;;;;;;;24.60;22.27;;;17.80;99.90;;;;;;5082075;28;20780;-66
2022/06/25 00:19:52;;;;;;;21.85;20.05;;;17.80;99.90;;;;;;5082416;28;20042;-66
2022/06/25 00:22:17;;;;;;;22.73;20.60;;;17.80;99.90;;;;;;5050587;28;20040;-66
2022/06/25 00:24:43;;;;;;;22.42;20.63;;;17.80;99.90;;;;;;5080130;28;20032;-66
2022/06/25 00:27:08;;;;;;;21.88;19.77;;;17.80;99.90;;;;;;5068130;28;20038;-66
2022/06/25 00:29:34;;;;;;;22.80;20.52;;;17.90;99.90;;;;;;5064193;28;20641;-66
2022/06/25 00:31:59;;;;;;;21.48;19.50;;;17.80;99.90;;;;;;5081695;28;20180;-66
2022/06/25 00:34:26;;;;;;;20.17;18.30;;;17.80;99.90;;;;;;5082678;28;20081;-66
2022/06/25 00:36:52;;;;;;;20.67;18.88;;;17.80;99.90;;;;;;5064636;28;20489;-66
2022/06/25 00:39:17;;;;;;;19.42;17.55;;;17.80;99.90;;;;;;5065705;28;20044;-66
2022/06/25 00:41:43;;;;;;;18.17;16.48;;;17.80;99.90;;;;;;5066663;28;20070;-66
2022/06/25 00:44:09;;;;;;;17.35;15.85;;;17.80;99.90;;;;;;5083758;28;20063;-66
2022/06/25 00:46:36;;;;;;;17.33;15.82;;;17.80;99.90;;;;;;5086016;28;20120;-66
2022/06/25 00:49:03;;;;;;;19.52;15.30;;;17.70;99.90;;;;;;5086149;28;20076;-66
2022/06/25 00:51:32;;;;;;;16.92;15.35;;;17.80;99.90;;;;;;5065413;28;20505;-66
2022/06/25 00:54:03;;;;;;;15.95;14.55;;;17.70;99.90;;;;;;5066797;28;20047;-66
2022/06/25 00:56:32;;;;;;;19.20;14.95;;;17.70;99.90;;;;;;5069362;28;20071;-66
2022/06/25 00:59:02;;;;;;;15.38;13.68;;;17.60;99.90;;;;;;5067614;28;20028;-66
2022/06/25 01:01:33;;;;;;;17.30;14.00;;;17.60;99.90;;;;;;5084214;28;20032;-66
2022/06/25 01:03:58;;;;;;;15.95;14.43;;;17.60;99.90;;;;;;5083375;28;20032;-66
2022/06/25 01:06:24;;;;;;;15.63;14.13;;;17.50;99.90;;;;;;5081078;28;20036;-66
2022/06/25 01:08:50;;;;;;;18.23;14.50;;;17.60;99.90;;;;;;5088486;28;20044;-66
2022/06/25 01:11:16;;;;;;;15.15;13.70;;;17.60;99.90;;;;;;5079481;28;20044;-66
2022/06/25 01:13:41;;;;;;;14.63;13.05;;;17.60;99.90;;;;;;5083678;28;20750;-66
2022/06/25 01:16:07;;;;;;;20.15;13.68;;;17.50;99.90;;;;;;5069884;28;20040;-66
2022/06/25 01:18:33;;;;;;;15.20;13.05;;;17.60;99.90;;;;;;5084220;28;21732;-66
2022/06/25 01:21:00;;;;;;;14.18;12.80;;;17.60;99.90;;;;;;5069651;28;20615;-66
2022/06/25 01:23:26;;;;;;;14.75;13.25;;;17.50;99.90;;;;;;5067826;28;21636;-65
2022/06/25 01:25:51;;;;;;;13.32;12.10;;;17.50;99.90;;;;;;5082452;28;20036;-65
2022/06/25 01:28:17;;;;;;;13.40;12.23;;;17.50;99.90;;;;;;5085561;28;20517;-65
2022/06/25 01:30:42;;;;;;;13.20;12.00;;;17.50;99.90;;;;;;5082933;28;20552;-65
2022/06/25 01:33:09;;;;;;;11.82;10.73;;;17.50;99.90;;;;;;5087284;28;20127;-65
2022/06/25 01:35:35;;;;;;;13.10;11.70;;;17.40;99.90;;;;;;5068601;28;20032;-65
2022/06/25 01:38:01;;;;;;;13.00;11.05;;;17.20;99.90;;;;;;5069662;28;20047;-66
2022/06/25 01:40:27;;;;;;;13.40;11.02;;;17.40;99.90;;;;;;5084923;28;20087;-66
2022/06/25 01:43:00;;;;;;;11.63;9.32;;;17.40;99.90;;;;;;5082663;28;20036;-65
2022/06/25 01:45:30;;;;;;;10.98;10.00;;;17.40;99.90;;;;;;5081987;28;20493;-65
2022/06/25 01:47:57;;;;;;;11.57;10.40;;;17.30;99.90;;;;;;5084742;28;20048;-65
2022/06/25 01:50:22;;;;;;;9.98;9.02;;;17.30;99.90;;;;;;5083757;28;21038;-65
2022/06/25 01:52:48;;;;;;;10.27;9.38;;;17.30;99.90;;;;;;5067904;28;20048;-65
2022/06/25 01:55:15;;;;;;;9.75;8.77;;;17.30;99.90;;;;;;5082537;28;20123;-65
2022/06/25 01:57:40;;;;;;;9.38;8.68;;;17.20;99.90;;;;;;5085347;28;20086;-65
2022/06/25 02:00:10;;;;;;;9.75;8.85;;;17.20;99.90;;;;;;5086486;28;20075;-65
2022/06/25 02:02:37;;;;;;;9.43;8.48;;;17.20;99.90;;;;;;5067609;28;20359;-65
2022/06/25 02:05:04;;;;;;;8.63;7.93;;;17.20;99.90;;;;;;5084283;28;20849;-65
2022/06/25 02:07:30;;;;;;;8.10;7.40;;;17.10;99.90;;;;;;5071407;28;20047;-65
2022/06/25 02:09:55;;;;;;;9.57;8.43;;;17.10;99.90;;;;;;5084153;28;20416;-65
2022/06/25 02:12:21;;;;;;;9.75;8.85;;;17.10;99.90;;;;;;5084056;28;20585;-65
2022/06/25 02:14:47;;;;;;;8.57;7.80;;;17.10;99.90;;;;;;5067315;28;20037;-65
2022/06/25 02:17:12;;;;;;;9.75;7.40;;;17.10;99.90;;;;;;5064242;28;21613;-65
2022/06/25 02:19:38;;;;;;;9.55;8.45;;;17.10;99.90;;;;;;5070407;28;20482;-66
2022/06/25 02:22:04;;;;;;;9.00;8.20;;;17.00;99.90;;;;;;5068084;28;20040;-65
2022/06/25 02:24:29;;;;;;;8.38;7.68;;;17.00;99.90;;;;;;5065513;28;20036;-65
2022/06/25 02:26:55;;;;;;;7.90;7.30;;;17.40;99.90;;;;;;5083019;28;20044;-65
2022/06/25 02:29:20;;;;;;;8.57;7.75;;;17.00;99.90;;;;;;5066237;28;21520;-65
2022/06/25 02:31:47;;;;;;;7.57;6.97;;;17.00;99.90;;;;;;5064402;28;20040;-65
2022/06/25 02:34:12;;;;;;;7.97;6.90;;;17.00;99.90;;;;;;5080070;28;20036;-65
2022/06/25 02:36:38;;;;;;;8.15;7.35;;;16.90;99.90;;;;;;5066108;28;20672;-65
2022/06/25 02:39:04;;;;;;;7.60;6.90;;;17.00;99.90;;;;;;5085197;28;20039;-65
2022/06/25 02:41:29;;;;;;;10.50;6.97;;;17.00;99.90;;;;;;5068395;28;20405;-65
2022/06/25 02:43:55;;;;;;;7.50;6.90;;;17.00;99.90;;;;;;5083852;28;20047;-65
2022/06/25 02:46:20;;;;;;;7.32;6.60;;;17.00;99.90;;;;;;5065788;28;20125;-65
2022/06/25 02:48:46;;;;;;;7.88;7.20;;;17.10;99.90;;;;;;5054856;28;20040;-65
2022/06/25 02:51:12;;;;;;;7.80;6.40;;;16.90;99.90;;;;;;5085268;28;20456;-65
2022/06/25 02:53:37;;;;;;;7.80;7.10;;;17.00;99.90;;;;;;5063879;28;20044;-65
2022/06/25 02:58:54;;;;;;;7.93;6.65;;;16.90;99.90;;;;;;5069874;28;20052;-65
2022/06/25 03:01:20;;;;;;;7.72;7.00;;;16.90;99.90;;;;;;5067071;28;20040;-65
2022/06/25 03:03:46;;;;;;;7.47;6.32;;;16.90;99.90;;;;;;5084565;28;20116;-65
2022/06/25 03:06:11;;;;;;;6.82;6.30;;;17.00;99.90;;;;;;5069577;28;20064;-66
2022/06/25 03:08:37;;;;;;;8.10;7.10;;;17.00;99.90;;;;;;5069696;28;20040;-65
2022/06/25 03:11:03;;;;;;;11.27;7.00;;;16.90;99.90;;;;;;5071054;28;20136;-65
2022/06/25 03:13:31;;;;;;;8.02;7.32;;;16.90;99.90;;;;;;5086238;28;20028;-65
2022/06/25 03:15:57;;;;;;;7.40;6.45;;;16.90;99.90;;;;;;5083200;28;20043;-65
2022/06/25 03:18:22;;;;;;;8.77;8.00;;;16.90;99.90;;;;;;5082187;28;20032;-65
2022/06/25 03:20:50;;;;;;;7.63;7.03;;;16.90;99.90;;;;;;5066812;28;20112;-65
2022/06/25 03:23:16;;;;;;;7.07;6.38;;;16.90;99.90;;;;;;5067568;28;20040;-65
2022/06/25 03:25:42;;;;;;;7.30;6.60;;;16.90;99.90;;;;;;5063486;28;20055;-65
2022/06/25 03:28:07;;;;;;;7.53;6.90;;;16.90;99.90;;;;;;5071935;28;20047;-65
2022/06/25 03:30:33;;;;;;;7.50;6.90;;;16.90;99.90;;;;;;5066022;28;20040;-65
2022/06/25 03:32:59;;;;;;;7.20;6.53;;;16.90;99.90;;;;;;5065698;28;20040;-65
2022/06/25 03:35:24;;;;;;;7.90;6.72;;;16.90;99.90;;;;;;5081689;28;20032;-65
2022/06/25 03:37:50;;;;;;;7.75;7.05;;;16.90;99.90;;;;;;5081250;28;20094;-65
2022/06/25 03:40:17;;;;;;;8.85;6.65;;;17.00;99.90;;;;;;5063823;28;20046;-65
2022/06/25 03:42:43;;;;;;;7.85;7.15;;;16.90;99.90;;;;;;5062537;28;20040;-65
2022/06/25 03:45:09;;;;;;;8.27;7.43;;;17.00;99.90;;;;;;5062823;28;20140;-65
2022/06/25 03:47:35;;;;;;;7.75;6.93;;;16.90;99.90;;;;;;5066812;28;20059;-65
2022/06/25 03:50:01;;;;;;;7.93;7.18;;;16.90;99.90;;;;;;5067951;28;20040;-65
2022/06/25 03:52:27;;;;;;;8.25;7.45;;;17.00;99.90;;;;;;5080514;28;20048;-65
2022/06/25 03:54:52;;;;;;;8.18;7.13;;;17.00;99.90;;;;;;5080411;28;20143;-65
2022/06/25 03:57:18;;;;;;;7.32;6.75;;;17.00;99.90;;;;;;5083218;28;20032;-65
2022/06/25 03:59:44;;;;;;;7.72;6.93;;;17.10;99.90;;;;;;5082331;28;20043;-65
2022/06/25 04:02:09;;;;;;;7.82;7.03;;;17.10;99.90;;;;;;5064165;28;20048;-65
2022/06/25 04:04:35;;;;;;;7.47;6.72;;;17.10;99.90;;;;;;5067909;28;20063;-65
2022/06/25 04:07:01;;;;;;;7.22;6.47;;;17.10;99.90;;;;;;5082038;28;20086;-65
2022/06/25 04:09:26;;;;;;;6.35;5.75;;;17.30;99.90;;;;;;5065906;28;20516;-65
2022/06/25 04:11:52;;;;;;;6.20;5.53;;;18.00;99.90;;;;;;5066060;28;20058;-65
2022/06/25 04:14:17;;;;;;;5.03;4.53;;;18.40;99.90;;;;;;5070690;28;20551;-65
2022/06/25 04:16:43;;;;;;;6.82;4.55;;;18.50;99.90;;;;;;5064121;28;20044;-65
2022/06/25 04:19:08;;;;;;;5.57;5.05;;;18.60;99.90;;;;;;5083464;28;20071;-65
2022/06/25 04:21:34;;;;;;;5.80;5.13;;;18.50;99.90;;;;;;5081113;28;20402;-65
2022/06/25 04:24:00;;;;;;;4.82;4.43;;;18.60;99.90;;;;;;5086142;28;20102;-65
2022/06/25 04:26:25;;;;;;;5.47;4.55;;;18.60;99.90;;;;;;5068131;28;20040;-65
2022/06/25 04:29:03;;;;;;;5.05;4.55;;;18.60;99.90;;;;;;5082276;28;20031;-65
2022/06/25 04:31:29;;;;;;;4.90;4.43;;;18.70;99.90;;;;;;5064368;28;20040;-65
2022/06/25 04:33:55;;;;;;;4.75;4.28;;;18.90;99.90;;;;;;5066237;28;20059;-65
2022/06/25 04:36:20;;;;;;;7.97;4.10;;;19.50;99.90;;;;;;5065487;28;20585;-66
2022/06/25 04:38:46;;;;;;;4.57;3.80;;;20.60;99.90;;;;;;5066101;28;20040;-66
2022/06/25 04:41:12;;;;;;;5.50;3.72;;;21.90;99.90;;;;;;5065035;28;20036;-66
2022/06/25 04:43:37;;;;;;;5.75;4.32;;;22.50;99.90;;;;;;5083554;28;20069;-66
2022/06/25 04:46:03;;;;;;;3.58;3.28;;;23.20;99.90;;;;;;5083146;28;20024;-65
2022/06/25 04:48:29;;;;;;;5.65;3.05;;;24.10;99.90;;;;;;5063659;28;20040;-65
2022/06/25 04:50:54;;;;;;;3.60;3.30;;;25.30;99.90;;;;;;5079579;28;20054;-66
2022/06/25 04:53:20;;;;;;;3.08;2.88;;;26.20;99.90;;;;;;5080562;28;20138;-66
2022/06/25 04:55:52;;;;;;;3.78;3.20;;;27.00;99.90;;;;;;5078667;28;20044;-66
2022/06/25 04:58:17;;;;;;;4.88;3.08;;;27.70;99.90;;;;;;5062739;28;20127;-66
2022/06/25 05:00:43;;;;;;;3.38;2.85;;;28.20;99.90;;;;;;5081065;28;20115;-66
2022/06/25 05:03:09;;;;;;;4.13;2.83;;;28.70;99.90;;;;;;5061281;28;20028;-66
2022/06/25 05:05:35;;;;;;;3.05;2.75;;;29.40;99.90;;;;;;5063382;28;20086;-65
2022/06/25 05:08:01;;;;;;;4.45;2.55;;;29.70;99.90;;;;;;5083883;28;20374;-66
2022/06/25 05:10:27;;;;;;;3.08;2.78;;;30.20;99.90;;;;;;5082129;28;20036;-66
2022/06/25 05:15:37;;;;;;;2.83;2.60;;;31.10;99.90;;;;;;5063192;28;20040;-66
2022/06/25 05:18:03;;;;;;;3.83;2.50;;;31.20;99.90;;;;;;5066421;28;20041;-65
2022/06/25 05:20:29;;;;;;;3.42;2.60;;;31.30;99.90;;;;;;5066391;28;20043;-66
2022/06/25 05:22:55;;;;;;;3.72;2.72;;;31.40;99.90;;;;;;5077101;28;20405;-66
2022/06/25 05:25:21;;;;;;;5.80;3.35;;;31.00;99.90;;;;;;5064512;28;20043;-66
2022/06/25 05:27:46;;;;;;;2.78;2.58;;;30.20;99.90;;;;;;5084294;28;20039;-66
2022/06/25 05:30:12;;;;;;;3.50;2.95;;;29.20;99.90;;;;;;5086113;28;20066;-66
2022/06/25 05:32:37;;;;;;;3.75;2.67;;;28.40;99.90;;;;;;5082699;28;20040;-66
2022/06/25 05:35:04;;;;;;;6.68;3.25;;;27.80;99.90;;;;;;5067963;28;20398;-66
2022/06/25 05:37:29;;;;;;;4.25;3.30;;;27.40;99.90;;;;;;5082676;28;20119;-66
2022/06/25 05:39:55;;;;;;;5.32;2.95;;;27.10;99.90;;;;;;5086977;28;20849;-65
2022/06/25 05:42:21;;;;;;;3.17;2.88;;;27.00;99.90;;;;;;5084975;28;20036;-65
2022/06/25 05:44:47;;;;;;;3.80;2.55;;;26.60;99.90;;;;;;5084293;28;20032;-65
2022/06/25 05:47:13;;;;;;;3.33;3.03;;;26.40;99.90;;;;;;5067825;28;20053;-65
2022/06/25 05:49:39;;;;;;;3.72;3.35;;;26.00;99.90;;;;;;5069057;28;20048;-65
2022/06/25 05:52:05;;;;;;;7.30;3.20;;;26.00;99.90;;;;;;5067580;28;20044;-65
2022/06/25 05:54:31;;;;;;;3.63;2.97;;;26.00;99.90;;;;;;5071784;28;20201;-65
2022/06/25 05:56:56;;;;;;;4.03;2.92;;;26.00;99.90;;;;;;5068397;28;20196;-65
2022/06/25 05:59:22;;;;;;;3.47;2.63;;;25.90;99.90;;;;;;5081733;28;20028;-65
2022/06/25 06:01:48;;;;;;;3.45;2.67;;;26.00;99.90;;;;;;5062789;28;20044;-65
2022/06/25 06:04:13;;;;;;;6.07;3.28;;;26.00;99.90;;;;;;5082627;28;20032;-65
2022/06/25 06:06:39;;;;;;;4.68;3.00;;;26.00;99.90;;;;;;5081655;28;21784;-65
2022/06/25 06:09:05;;;;;;;2.92;2.47;;;26.10;99.90;;;;;;5080243;28;20040;-65
2022/06/25 06:11:31;;;;;;;4.88;3.03;;;26.10;99.90;;;;;;5081660;28;20033;-65
2022/06/25 06:13:56;;;;;;;4.32;2.72;;;26.10;99.90;;;;;;5081296;28;20154;-65
2022/06/25 06:16:22;;;;;;;3.40;2.35;;;25.90;99.90;;;;;;5062854;28;20040;-66
2022/06/25 06:18:47;;;;;;;3.05;2.55;;;25.90;99.90;;;;;;5063133;28;20043;-66
2022/06/25 06:21:13;;;;;;;3.47;2.63;;;25.90;99.90;;;;;;5062192;28;20032;-65
2022/06/25 06:23:39;;;;;;;5.32;2.55;;;25.80;99.90;;;;;;5078823;28;20043;-66
2022/06/25 06:26:04;;;;;;;4.93;2.13;;;25.80;99.90;;;;;;5062996;28;20040;-65
2022/06/25 06:28:30;;;;;;;5.22;2.72;;;25.80;99.90;;;;;;5080042;28;20130;-66
2022/06/25 06:30:56;;;;;;;4.82;2.30;;;25.90;99.90;;;;;;5065434;28;20044;-66
2022/06/25 06:33:21;;;;;;;5.53;2.20;;;26.10;99.90;;;;;;5066659;28;20039;-66
2022/06/25 06:35:47;;;;;;;3.15;2.20;;;26.30;99.90;;;;;;5063591;28;20095;-66
2022/06/25 06:38:12;;;;;;;6.05;2.25;;;26.40;99.90;;;;;;5081495;28;20071;-66
2022/06/25 06:40:38;;;;;;;2.42;2.20;;;26.30;99.90;;;;;;5060866;28;20046;-66
2022/06/25 06:43:04;;;;;;;3.58;2.47;;;26.30;99.90;;;;;;5078923;28;20051;-66
2022/06/25 06:45:30;;;;;;;6.53;2.10;;;26.40;99.90;;;;;;5063713;28;20032;-66
2022/06/25 06:47:55;;;;;;;5.80;2.45;;;26.40;99.90;;;;;;5080167;28;20082;-66
2022/06/25 06:50:21;;;;;;;3.88;1.83;;;26.60;99.90;;;;;;5076821;28;20052;-66
2022/06/25 06:52:47;;;;;;;3.55;2.00;;;26.60;99.90;;;;;;5069478;28;20500;-66
2022/06/25 06:55:12;;;;;;;8.23;2.40;;;26.50;99.90;;;;;;5067030;28;20122;-66
2022/06/25 06:57:38;;;;;;;7.82;2.60;;;26.60;99.90;;;;;;5080342;28;20039;-66
2022/06/25 07:00:06;;;;;;;2.25;1.52;;;26.70;99.90;;;;;;5066882;28;20460;-66
2022/06/25 07:02:32;;;;;;;3.60;2.38;;;26.70;99.90;;;;;;5066709;28;20035;-65
2022/06/25 07:04:57;;;;;;;4.45;1.75;;;26.70;99.90;;;;;;5083701;28;20569;-66
2022/06/25 07:07:23;;;;;;;3.63;1.77;;;26.60;99.90;;;;;;5068840;28;20047;-66
2022/06/25 07:09:49;;;;;;;3.30;2.15;;;26.70;99.90;;;;;;5083955;28;20036;-65
2022/06/25 07:12:15;;;;;;;4.57;1.90;;;26.70;99.90;;;;;;5053828;28;20044;-66
2022/06/25 07:14:41;;;;;;;2.53;2.00;;;26.70;99.90;;;;;;5083805;28;20389;-65
2022/06/25 07:17:07;;;;;;;4.80;2.00;;;26.70;99.90;;;;;;5083252;28;20036;-65
2022/06/25 07:19:32;;;;;;;5.70;2.42;;;26.80;99.90;;;;;;5083800;28;20032;-65
2022/06/25 07:21:58;;;;;;;4.22;1.85;;;26.90;99.90;;;;;;5071408;28;20033;-66
2022/06/25 07:24:24;;;;;;;5.85;2.42;;;26.90;99.90;;;;;;5068617;28;20048;-66
2022/06/25 07:26:49;;;;;;;3.47;1.88;;;26.90;99.90;;;;;;5068482;28;20032;-65
2022/06/25 07:29:16;;;;;;;3.65;2.00;;;27.00;99.90;;;;;;5065125;28;20402;-66
2022/06/25 07:31:42;;;;;;;7.22;2.58;;;26.90;99.90;;;;;;5076360;28;20049;-66
2022/06/25 07:34:07;;;;;;;4.85;2.05;;;27.00;99.90;;;;;;5082652;28;20048;-66
2022/06/25 07:36:33;;;;;;;5.18;2.00;;;27.20;99.90;;;;;;5063537;28;20059;-65
2022/06/25 07:39:00;;;;;;;5.40;2.60;;;27.10;99.90;;;;;;5082135;28;20047;-65
2022/06/25 07:41:27;;;;;;;4.70;2.00;;;27.00;99.90;;;;;;5068096;28;20048;-66
2022/06/25 07:43:52;;;;;;;2.80;2.03;;;26.80;99.90;;;;;;5079030;28;20505;-66
2022/06/25 07:46:18;;;;;;;8.13;2.10;;;26.70;99.90;;;;;;5082492;28;20032;-65
2022/06/25 07:48:44;;;;;;;4.32;1.40;;;26.80;99.90;;;;;;5061554;28;20119;-65
2022/06/25 07:53:54;;;;;;;4.13;1.70;;;26.80;99.90;;;;;;5080437;28;20037;-65
2022/06/25 07:56:19;;;;;;;3.00;1.70;;;26.90;99.90;;;;;;5063687;28;20229;-66
2022/06/25 07:58:45;;;;;;;3.10;1.48;;;26.90;99.90;;;;;;5065067;28;20063;-65
2022/06/25 08:01:11;;;;;;;3.40;1.40;;;27.00;99.90;;;;;;5065210;28;20032;-65
2022/06/25 08:03:36;;;;;;;5.25;1.85;;;27.10;99.90;;;;;;5086820;28;20489;-65
2022/06/25 08:06:02;;;;;;;5.00;1.40;;;27.40;99.90;;;;;;5065977;28;20475;-65
2022/06/25 08:08:28;;;;;;;5.90;1.58;;;27.40;99.90;;;;;;5080495;28;20040;-65
2022/06/25 08:10:53;;;;;;;2.75;1.27;;;27.30;99.90;;;;;;5067287;28;20371;-65
2022/06/25 08:13:19;;;;;;;2.30;1.20;;;27.00;99.90;;;;;;5067988;28;20044;-65
2022/06/25 08:15:45;;;;;;;4.22;1.40;;;26.80;99.90;;;;;;5066130;28;20055;-65
2022/06/25 08:18:10;;;;;;;7.20;2.08;;;26.70;99.90;;;;;;5066902;28;20122;-65
2022/06/25 08:20:36;;;;;;;3.00;0.90;;;26.50;99.90;;;;;;5068758;28;20039;-65
2022/06/25 08:23:02;;;;;;;3.38;1.13;;;26.60;99.90;;;;;;5070128;28;20036;-65
2022/06/25 08:25:27;;;;;;;2.00;1.25;;;26.40;99.90;;;;;;5082490;28;20058;-65
2022/06/25 08:27:54;;;;;;;2.05;0.90;;;26.30;99.90;;;;;;5079564;28;20032;-65
2022/06/25 08:30:21;;;;;;;2.95;0.90;;;26.30;99.90;;;;;;5076953;28;20536;-65
2022/06/25 08:32:47;;;;;;;4.93;0.95;;;26.20;99.90;;;;;;5065204;28;20045;-65
2022/06/25 08:35:13;;;;;;;3.53;0.93;;;26.10;99.90;;;;;;5082670;28;20482;-65
2022/06/25 08:37:44;;;;;;;1.48;1.23;;;26.00;99.90;;;;;;5063177;28;20048;-65
2022/06/25 08:40:10;;;;;;;1.35;1.10;;;25.70;99.90;;;;;;5083194;28;20044;-65
2022/06/25 08:42:36;;;;;;;3.30;1.25;;;25.90;99.90;;;;;;5049523;28;20036;-65
2022/06/25 08:45:03;;;;;;;2.42;1.20;;;26.10;99.90;;;;;;5066232;28;20028;-64
2022/06/25 08:47:29;;;;;;;2.45;1.30;;;26.30;99.90;;;;;;5066583;28;20122;-65
2022/06/25 08:49:55;;;;;;;6.28;1.98;;;26.50;99.90;;;;;;5080940;28;20057;-65
2022/06/25 08:52:22;;;;;;;2.83;1.10;;;26.60;99.90;;;;;;5083305;28;20043;-65
2022/06/25 08:54:48;;;;;;;2.72;1.13;;;26.50;99.90;;;;;;5080800;28;20524;-65
2022/06/25 08:57:14;;;;;;;3.00;1.00;;;26.30;99.90;;;;;;5068238;28;20409;-65
2022/06/25 08:59:41;;;;;;;8.18;1.63;;;26.10;99.90;;;;;;5067328;28;20051;-65
2022/06/25 09:02:07;;;;;;;2.95;1.58;;;25.90;99.90;;;;;;5084909;28;20047;-65
2022/06/25 09:04:33;;;;;;;2.58;1.25;;;25.80;99.90;;;;;;5070373;28;20101;-65
2022/06/25 09:07:19;;;;;;;1.58;1.17;;;26.00;99.90;;;;;;5084025;28;20039;-65
2022/06/25 09:09:49;;;;;;;5.20;1.10;;;26.30;99.90;;;;;;5086852;28;20043;-64
2022/06/25 09:12:16;;;;;;;3.33;1.00;;;26.50;99.90;;;;;;5072108;28;20722;-64
2022/06/25 09:14:42;;;;;;;2.38;0.80;;;26.50;99.90;;;;;;5084560;28;20505;-65
2022/06/25 09:17:12;;;;;;;2.30;1.35;;;26.60;99.90;;;;;;5073104;28;20071;-65
2022/06/25 09:19:52;;;;;;;3.58;1.05;;;26.70;99.90;;;;;;5070100;28;20669;-65
2022/06/25 09:22:18;;;;;;;4.35;0.70;;;26.80;99.90;;;;;;5067702;28;20046;-64
2022/06/25 09:24:57;;;;;;;1.60;0.63;;;26.90;99.90;;;;;;5069568;28;20036;-65
2022/06/25 09:27:36;;;;;;;4.70;1.38;;;26.90;99.90;;;;;;5087500;28;20051;-64
2022/06/25 09:30:14;;;;;;;3.83;0.98;;;27.00;99.90;;;;;;5082012;28;20094;-64
2022/06/25 09:32:45;;;;;;;4.50;0.68;;;26.90;99.90;;;;;;5081852;28;20044;-64
2022/06/25 09:35:10;;;;;;;2.15;0.98;;;27.00;99.90;;;;;;5072541;28;20506;-65
2022/06/25 09:37:36;;;;;;;6.47;0.75;;;26.90;99.90;;;;;;5067791;28;20166;-65
2022/06/25 09:40:02;;;;;;;1.67;0.70;;;26.70;99.90;;;;;;5086034;28;20089;-65
2022/06/25 09:42:31;;;;;;;5.63;0.70;;;26.50;99.90;;;;;;5069019;28;20085;-65
2022/06/25 09:45:06;;;;;;;1.25;0.50;;;26.40;99.90;;;;;;5084539;28;20032;-64
2022/06/25 09:47:39;;;;;;;2.60;0.50;;;26.50;99.90;;;;;;5084602;28;20044;-65
2022/06/25 09:50:08;;;;;;;2.38;0.90;;;26.30;99.90;;;;;;5086254;28;20043;-65
2022/06/25 09:52:36;;;;;;;1.92;0.80;;;26.10;99.90;;;;;;5084902;28;20040;-65
2022/06/25 09:55:02;;;;;;;1.95;0.60;;;26.00;99.90;;;;;;5070700;28;20045;-65
2022/06/25 09:57:29;;;;;;;2.05;0.60;;;25.80;99.90;;;;;;5080104;28;20032;-64
2022/06/25 09:59:58;;;;;;;2.28;0.80;;;25.70;99.90;;;;;;5084549;28;20036;-65
2022/06/25 10:02:27;;;;;;;2.05;0.63;;;25.40;99.90;;;;;;5084880;28;20036;-65
2022/06/25 10:04:57;;;;;;;5.97;1.20;;;25.20;99.90;;;;;;5085120;28;20128;-65
2022/06/25 10:07:59;;;;;;;3.85;0.65;;;25.30;99.90;;;;;;5065959;28;20040;-65
2022/06/25 10:10:13;;;;;;;1.55;0.50;;;25.50;99.90;;;;;;5065338;28;20057;-65
2022/06/25 10:12:39;;;;;;;5.65;0.50;;;25.50;99.90;;;;;;5081424;28;20036;-65
2022/06/25 10:15:06;;;;;;;1.98;0.68;;;25.40;99.90;;;;;;5056215;28;20532;-64
2022/06/25 10:17:32;;;;;;;3.40;0.80;;;25.20;99.90;;;;;;5082932;28;20102;-65
2022/06/25 10:19:59;;;;;;;1.33;0.43;;;25.00;99.90;;;;;;5051591;28;20059;-65
2022/06/25 10:22:27;;;;;;;3.00;0.60;;;24.80;99.90;;;;;;5083258;28;20039;-65
2022/06/25 10:24:55;;;;;;;1.92;0.57;;;24.80;99.90;;;;;;5082831;28;20032;-65
2022/06/25 10:27:21;;;;;;;1.45;0.70;;;24.60;99.90;;;;;;5081647;28;20073;-65
2022/06/25 10:29:57;;;;;;;2.55;0.80;;;24.60;99.90;;;;;;5082944;28;20115;-65
2022/06/25 10:32:25;;;;;;;4.07;0.60;;;24.50;99.90;;;;;;5086357;28;20435;-65
2022/06/25 10:34:56;;;;;;;2.80;0.47;;;24.60;99.90;;;;;;5085131;28;20038;-64
2022/06/25 10:37:22;;;;;;;4.60;1.00;;;24.70;99.90;;;;;;5079014;28;20039;-64
2022/06/25 10:39:53;;;;;;;1.00;0.43;;;24.70;99.90;;;;;;5081973;28;20422;-65
2022/06/25 10:45:14;;;;;;;4.75;0.85;;;24.50;99.90;;;;;;5081225;28;20040;-65
2022/06/25 10:47:54;;;;;;;5.15;0.93;;;24.40;99.90;;;;;;5084192;28;20047;-65
2022/06/25 10:50:22;;;;;;;1.45;0.43;;;24.40;99.90;;;;;;5079894;28;20047;-65
2022/06/25 10:53:07;;;;;;;2.08;0.30;;;24.40;99.90;;;;;;5081910;28;20401;-65
2022/06/25 10:55:38;;;;;;;3.78;0.70;;;24.40;99.90;;;;;;5084591;28;20521;-65
2022/06/25 10:58:12;;;;;;;4.10;1.23;;;24.60;99.90;;;;;;5069366;28;20097;-65
2022/06/25 11:01:01;;;;;;;6.07;0.70;;;24.70;99.90;;;;;;5082333;28;20044;-65
2022/06/25 11:03:32;;;;;;;1.55;0.50;;;24.90;99.90;;;;;;5068248;28;20051;-65
2022/06/25 11:06:00;;;;;;;4.07;0.68;;;24.90;99.90;;;;;;5085964;28;20067;-65
2022/06/25 11:08:33;;;;;;;2.00;0.63;;;24.80;99.90;;;;;;5065289;28;20059;-65
2022/06/25 11:10:59;;;;;;;3.17;0.80;;;24.70;99.90;;;;;;5062206;28;20048;-65
2022/06/25 11:13:25;;;;;;;3.63;0.57;;;24.80;99.90;;;;;;5085040;28;20510;-65
2022/06/25 11:15:51;;;;;;;2.78;0.50;;;24.70;99.90;;;;;;5065253;28;20076;-64
2022/06/25 11:18:16;;;;;;;2.08;0.47;;;24.60;99.90;;;;;;5081440;28;20170;-65
2022/06/25 11:20:42;;;;;;;1.85;0.65;;;24.60;99.90;;;;;;5064859;28;20743;-64
2022/06/25 11:23:14;;;;;;;7.88;1.23;;;24.70;99.90;;;;;;5083625;28;20044;-65
2022/06/25 11:28:48;;;;;;;4.38;0.77;;;24.70;99.90;;;;;;5077852;28;20048;-65
2022/06/25 11:31:21;;;;;;;3.97;0.70;;;24.60;99.90;;;;;;5084869;28;20032;-64
2022/06/25 11:33:51;;;;;;;4.43;0.65;;;24.80;99.90;;;;;;5086243;28;20099;-64
2022/06/25 11:36:17;;;;;;;3.95;0.60;;;25.00;99.90;;;;;;5066022;28;20058;-65
2022/06/25 11:38:52;;;;;;;2.90;0.80;;;25.00;99.90;;;;;;5081727;28;20063;-65
2022/06/25 11:41:22;;;;;;;4.25;0.90;;;25.00;99.90;;;;;;5083423;28;20036;-63
2022/06/25 11:43:47;;;;;;;3.47;0.50;;;25.00;99.90;;;;;;5068917;28;20052;-64
2022/06/25 11:46:18;;;;;;;1.75;0.50;;;24.80;99.90;;;;;;5083510;28;20082;-64
2022/06/25 11:48:47;;;;;;;3.80;0.88;;;24.70;99.90;;;;;;5067567;28;20455;-64
2022/06/25 11:51:14;;;;;;;3.53;1.00;;;24.50;99.90;;;;;;5084499;28;20565;-65
2022/06/25 11:53:41;;;;;;;16.50;2.28;;;24.40;99.90;;;;;;5080954;28;20452;-65
2022/06/25 11:56:07;;;;;;;4.50;0.95;;;24.10;99.90;;;;;;5083831;28;20035;-65
2022/06/25 11:58:35;;;;;;;5.47;1.13;;;24.00;99.90;;;;;;5083384;28;20783;-65
2022/06/25 12:01:04;;;;;;;4.53;0.90;;;23.90;99.90;;;;;;5084597;28;20114;-65
2022/06/25 12:03:31;;;;;;;3.47;0.70;;;23.80;99.90;;;;;;5073212;28;20035;-65
2022/06/25 12:05:59;;;;;;;3.40;0.85;;;23.60;99.90;;;;;;5066671;28;20048;-66
2022/06/25 12:08:26;;;;;;;3.03;0.65;;;23.50;99.90;;;;;;5080679;28;20043;-66
2022/06/25 12:10:54;;;;;;;4.60;0.98;;;23.40;99.90;;;;;;5068993;28;20482;-66
2022/06/25 12:13:20;;;;;;;4.22;0.90;;;23.40;99.90;;;;;;5082743;28;20089;-66
2022/06/25 12:15:46;;;;;;;1.33;0.70;;;23.40;99.90;;;;;;5066853;28;20048;-66
2022/06/25 12:18:12;;;;;;;1.77;0.90;;;23.30;99.90;;;;;;5065039;28;20044;-66
2022/06/25 12:20:54;;;;;;;0.93;0.70;;;23.30;99.90;;;;;;5062682;28;20681;-66
2022/06/25 12:23:20;;;;;;;2.17;0.90;;;23.40;99.90;;;;;;5064481;28;20042;-65
2022/06/25 12:25:48;;;;;;;3.65;0.80;;;23.50;99.90;;;;;;5080948;28;20049;-65
2022/06/25 12:28:13;;;;;;;1.92;1.40;;;23.40;99.90;;;;;;5077213;28;20661;-65
2022/06/25 12:30:39;;;;;;;2.38;1.15;;;23.40;99.90;;;;;;5076913;28;20139;-66
2022/06/25 12:33:09;;;;;;;2.25;0.73;;;23.10;99.90;;;;;;5067735;28;20040;-66
2022/06/25 12:35:40;;;;;;;2.28;1.15;;;23.30;99.90;;;;;;5082596;28;20058;-65
2022/06/25 12:38:10;;;;;;;1.52;0.60;;;23.30;99.90;;;;;;5067941;28;20040;-65
2022/06/25 12:40:50;;;;;;;1.95;0.70;;;23.20;99.90;;;;;;5068691;28;20052;-66
2022/06/25 12:43:16;;;;;;;4.35;0.82;;;23.10;99.90;;;;;;5085845;28;20040;-65
2022/06/25 12:45:47;;;;;;;1.75;0.77;;;23.00;99.90;;;;;;5085674;28;20537;-65
2022/06/25 12:48:26;;;;;;;2.10;1.10;;;23.00;99.90;;;;;;5070433;28;20048;-65
2022/06/25 12:50:52;;;;;;;9.45;1.77;;;22.90;99.90;;;;;;5087372;28;20032;-66
2022/06/25 12:53:18;;;;;;;2.83;1.10;;;22.90;99.90;;;;;;5066844;28;20040;-66
2022/06/25 12:55:48;;;;;;;3.10;1.17;;;22.90;99.90;;;;;;5086355;28;20545;-65
2022/06/25 12:58:15;;;;;;;2.75;1.00;;;23.00;99.90;;;;;;5085385;28;20051;-65